Strona główna
METAR-TAF:

METAR-TAF

Lotnisko :

Port lotniczy Humberside

Humberside, Anglia

Szerokość geograficzna: 53-35N, Długość geograficzna: 000-21W, wysokość: 31 m

Aktualna obserwacja pogody

Raport powstał 11 minut temu, godzina 02:50 UTC
Wiatr 6 kt od południe
Temperatura 4°C
Wilgotność 87%
Ciśnienie 1018 hPa
Widzialność 10 km lub więcej

METAR: EGNJ 040250Z AUTO 19006KT 9999 NCD 04/02 Q1018

czas: 04:01 (03:01 UTC)

Prognoza

Raport powstał 1 godzina i 2 minut temu, godzina 01:59 UTC
Prognoza ważna od 04 godzina 03 UTC do 04 godzina 12 UTC
Wiatr 8 kt od południowo-południowy zachód
Widzialność 10 km lub więcej
Mało chmury na wysokości 4500 ft

TAF: EGNJ 040159Z 0403/0412 20008KT 9999 FEW045

Obserwacja i prognoza pogody dla ponad 4000 lotnisk (raport METAR i TAF).

Dostępne stacje oznaczono żółtymi i czerwonymi punktami na mapie.

Najedź kursorem aby zobaczyć nazwę stacji.

Kliknij aby zobaczyć obserwacje i prognozy pogody.

Aby zmienić mapę: kliknij na zielony przycisk z czarnym krzyżykiem, aby powiększyć; na zielony przycisk z myślnikiem, aby pomniejszyć; na zielone strzałki, aby przejść do map sąsiednich.


METAR-TAF: